createdAt,value
2018-01-16T00:01:02.725Z,1.60
2018-01-16T00:03:31.533Z,1.60
2018-01-16T00:05:59.594Z,1.53
2018-01-16T00:08:28.441Z,1.20
2018-01-16T00:10:56.514Z,1.70
2018-01-16T00:13:24.559Z,1.50
2018-01-16T00:15:52.661Z,1.20
2018-01-16T00:18:20.713Z,1.53
2018-01-16T00:30:04.081Z,1.60
2018-01-16T00:32:32.125Z,1.40
2018-01-16T00:35:00.174Z,1.37
2018-01-16T00:37:29.021Z,1.77
2018-01-16T00:39:57.072Z,1.27
2018-01-16T00:42:25.188Z,1.30
2018-01-16T00:44:53.255Z,1.50
2018-01-16T00:47:21.370Z,1.33
2018-01-16T00:49:50.178Z,1.50
2018-01-16T00:52:19.030Z,1.40
2018-01-16T00:54:47.082Z,1.73
2018-01-16T00:57:15.171Z,1.33
2018-01-16T00:59:43.985Z,1.60
2018-01-16T01:02:12.035Z,1.63
2018-01-16T01:04:40.088Z,1.92
2018-01-16T01:07:08.190Z,1.70
2018-01-16T01:09:36.246Z,1.40
2018-01-16T01:12:04.301Z,1.30
2018-01-16T01:14:33.133Z,1.23
2018-01-16T01:17:01.205Z,1.20
2018-01-16T01:19:29.303Z,1.40
2018-01-16T01:21:57.402Z,1.40
2018-01-16T01:24:25.448Z,1.70
2018-01-16T01:26:53.494Z,1.23
2018-01-16T01:29:21.594Z,1.30
2018-01-16T01:31:49.649Z,1.50
2018-01-16T01:34:17.745Z,1.80
2018-01-16T01:36:45.802Z,1.17
2018-01-16T01:39:13.842Z,1.63
2018-01-16T01:41:42.698Z,1.37
2018-01-16T01:46:44.149Z,0.90
2018-01-16T01:49:14.008Z,1.43
2018-01-16T01:51:42.063Z,2.13
2018-01-16T01:54:10.126Z,1.63
2018-01-16T01:56:38.186Z,1.60
2018-01-16T01:59:06.294Z,1.60
2018-01-16T02:01:34.358Z,1.40
2018-01-16T02:04:02.437Z,1.50
2018-01-16T02:06:30.501Z,1.80
2018-01-16T02:08:58.550Z,1.30
2018-01-16T02:11:26.606Z,1.77
2018-01-16T02:13:55.418Z,1.93
2018-01-16T02:16:24.253Z,2.00
2018-01-16T02:18:52.293Z,1.90
2018-01-16T02:21:20.409Z,1.30
2018-01-16T02:23:48.974Z,1.60
2018-01-16T02:26:17.039Z,1.52
2018-01-16T02:28:45.154Z,1.20
2018-01-16T02:31:13.226Z,1.40
2018-01-16T02:33:41.274Z,1.00
2018-01-16T02:36:09.369Z,1.60
2018-01-16T02:38:37.420Z,0.97
2018-01-16T02:41:05.469Z,1.20
2018-01-16T02:43:34.286Z,0.90
2018-01-16T02:46:02.341Z,1.10
2018-01-16T02:48:31.161Z,0.80
2018-01-16T02:50:59.243Z,1.20
2018-01-16T02:53:28.397Z,1.10
2018-01-16T02:55:57.243Z,0.90
2018-01-16T02:58:25.309Z,1.07
2018-01-16T03:00:53.405Z,1.10
2018-01-16T03:03:21.490Z,0.93
2018-01-16T03:05:49.534Z,1.00
2018-01-16T03:08:17.606Z,0.90
2018-01-16T03:10:45.713Z,1.33
2018-01-16T03:13:13.786Z,1.00
2018-01-16T03:15:41.878Z,1.47
2018-01-16T03:18:09.929Z,0.90
2018-01-16T03:20:38.096Z,0.97
2018-01-16T03:23:06.141Z,1.07
2018-01-16T03:25:34.965Z,0.80
2018-01-16T03:28:03.009Z,0.90
2018-01-16T03:30:31.822Z,1.10
2018-01-16T03:32:59.941Z,0.87
2018-01-16T03:35:29.000Z,0.90
2018-01-16T03:37:57.122Z,0.67
2018-01-16T03:40:25.202Z,1.20
2018-01-16T03:42:53.262Z,0.80
2018-01-16T03:45:21.345Z,0.87
2018-01-16T03:47:49.521Z,0.80
2018-01-16T03:50:17.594Z,0.90
2018-01-16T03:52:45.653Z,0.80
2018-01-16T03:55:13.753Z,1.10
2018-01-16T03:57:41.820Z,0.70
2018-01-16T04:00:09.868Z,0.90
2018-01-16T04:02:37.982Z,0.80
2018-01-16T04:05:06.034Z,0.87
2018-01-16T04:07:34.129Z,0.80
2018-01-16T04:10:02.210Z,1.00
2018-01-16T04:12:30.261Z,0.60
2018-01-16T04:14:59.427Z,0.70
2018-01-16T04:17:28.289Z,0.90
2018-01-16T04:19:56.338Z,0.70
2018-01-16T04:22:24.402Z,0.80
2018-01-16T04:24:52.458Z,0.90
2018-01-16T04:27:21.273Z,0.80
2018-01-16T04:29:49.321Z,0.70
2018-01-16T04:32:18.169Z,1.10
2018-01-16T04:34:46.217Z,0.93
2018-01-16T04:37:14.276Z,0.63
2018-01-16T04:39:43.117Z,0.70
2018-01-16T04:42:11.197Z,0.70
2018-01-16T04:44:39.249Z,0.70
2018-01-16T04:47:07.347Z,0.80
2018-01-16T04:49:35.423Z,0.60
2018-01-16T04:52:03.497Z,0.90
2018-01-16T04:54:31.574Z,0.90
2018-01-16T04:57:00.271Z,0.95
2018-01-16T04:59:28.321Z,0.77
2018-01-16T05:01:56.384Z,0.80
2018-01-16T05:04:24.434Z,0.90
2018-01-16T05:06:53.286Z,0.80
2018-01-16T05:09:21.338Z,0.80
2018-01-16T05:11:49.396Z,1.10
2018-01-16T05:14:17.509Z,0.90
2018-01-16T05:16:45.566Z,0.70
2018-01-16T05:19:13.618Z,0.80
2018-01-16T05:21:42.450Z,0.80
2018-01-16T05:24:10.505Z,0.97
2018-01-16T05:26:38.614Z,0.73
2018-01-16T05:29:06.785Z,0.98
2018-01-16T05:31:34.866Z,0.80
2018-01-16T05:34:02.946Z,0.80
2018-01-16T05:36:30.989Z,0.87
2018-01-16T05:38:59.041Z,0.90
2018-01-16T05:41:27.854Z,0.70
2018-01-16T05:43:55.914Z,0.77
2018-01-16T05:46:24.729Z,1.00
2018-01-16T05:48:52.802Z,0.90
2018-01-16T05:51:20.845Z,0.77
2018-01-16T05:53:49.671Z,0.80
2018-01-16T05:56:17.718Z,0.70
2018-01-16T05:58:46.574Z,0.80
2018-01-16T06:01:14.658Z,0.97
2018-01-16T06:03:42.716Z,0.80
2018-01-16T06:06:10.797Z,0.60
2018-01-16T06:08:38.874Z,0.70
2018-01-16T06:11:06.954Z,0.77
2018-01-16T06:13:35.014Z,0.83
2018-01-16T06:16:03.918Z,0.87
2018-01-16T06:18:31.969Z,0.70
2018-01-16T06:21:00.019Z,0.70
2018-01-16T06:23:28.842Z,0.83
2018-01-16T06:25:56.942Z,0.70
2018-01-16T06:28:25.022Z,0.70
2018-01-16T06:30:53.081Z,0.70
2018-01-16T06:33:21.177Z,0.90
2018-01-16T06:35:49.297Z,0.67
2018-01-16T06:38:18.118Z,0.70
2018-01-16T06:40:46.188Z,0.70
2018-01-16T06:43:14.256Z,0.70
2018-01-16T06:45:42.314Z,0.77
2018-01-16T06:48:11.173Z,0.70
2018-01-16T06:50:39.350Z,0.80
2018-01-16T06:53:07.424Z,0.63
2018-01-16T06:55:35.462Z,0.60
2018-01-16T06:58:03.577Z,0.80
2018-01-16T07:00:31.950Z,1.10
2018-01-16T07:03:00.041Z,0.70
2018-01-16T07:05:28.114Z,0.80
2018-01-16T07:07:56.197Z,0.73
2018-01-16T07:10:24.263Z,0.80
2018-01-16T07:12:52.342Z,0.90
2018-01-16T07:15:20.433Z,0.70
2018-01-16T07:17:48.498Z,0.80
2018-01-16T07:20:16.574Z,0.80
2018-01-16T07:22:44.819Z,0.57
2018-01-16T07:25:12.921Z,0.70
2018-01-16T07:27:41.005Z,0.60
2018-01-16T07:30:09.049Z,1.00
2018-01-16T07:32:37.109Z,0.70
2018-01-16T07:35:05.918Z,0.63
2018-01-16T07:37:33.973Z,0.90
2018-01-16T07:40:03.161Z,0.75
2018-01-16T07:42:33.101Z,0.90
2018-01-16T07:45:02.258Z,0.70
2018-01-16T07:47:30.309Z,0.70
2018-01-16T07:49:58.414Z,0.60
2018-01-16T07:52:26.578Z,0.70
2018-01-16T07:54:54.645Z,0.67
2018-01-16T07:57:22.690Z,0.83
2018-01-16T07:59:50.809Z,0.60
2018-01-16T08:02:18.890Z,0.80
2018-01-16T08:04:46.940Z,0.70
2018-01-16T08:07:15.029Z,0.70
2018-01-16T08:09:43.077Z,0.57
2018-01-16T08:12:11.121Z,0.70
2018-01-16T08:14:39.944Z,0.70
2018-01-16T08:17:08.054Z,0.60
2018-01-16T08:19:36.110Z,0.50
2018-01-16T08:22:04.158Z,0.73
2018-01-16T08:24:33.767Z,0.75
2018-01-16T08:27:03.688Z,0.80
2018-01-16T08:29:31.749Z,0.80
2018-01-16T08:32:00.601Z,0.80
2018-01-16T08:34:28.773Z,1.00
2018-01-16T08:36:56.822Z,0.70
2018-01-16T08:39:24.865Z,0.70
2018-01-16T08:41:53.010Z,0.60
2018-01-16T08:44:21.070Z,0.67
2018-01-16T08:46:49.109Z,0.80
2018-01-16T08:49:17.935Z,0.80
2018-01-16T08:51:45.972Z,0.60
2018-01-16T08:54:14.838Z,0.60
2018-01-16T08:56:42.877Z,0.80
2018-01-16T08:59:10.978Z,0.67
2018-01-16T09:01:39.029Z,0.50
2018-01-16T09:04:07.082Z,0.60
2018-01-16T09:13:52.121Z,0.50
2018-01-16T09:16:20.166Z,0.70
2018-01-16T09:18:49.051Z,0.60
2018-01-16T09:21:17.861Z,0.70
2018-01-16T09:23:46.690Z,0.70
2018-01-16T09:26:14.744Z,0.70
2018-01-16T09:28:42.827Z,0.60
2018-01-16T09:31:10.881Z,0.60
2018-01-16T09:33:39.686Z,0.80
2018-01-16T09:36:07.743Z,0.70
2018-01-16T09:38:36.558Z,0.77
2018-01-16T09:41:04.593Z,0.80
2018-01-16T09:43:32.654Z,0.80
2018-01-16T09:46:00.697Z,0.80
2018-01-16T09:48:28.758Z,0.80
2018-01-16T09:50:56.807Z,0.70
2018-01-16T09:53:24.860Z,0.70
2018-01-16T09:55:52.932Z,0.80
2018-01-16T09:58:20.986Z,1.00
2018-01-16T10:00:49.032Z,0.80
2018-01-16T10:03:17.087Z,1.20
2018-01-16T10:05:45.897Z,0.83
2018-01-16T10:08:13.958Z,0.90
2018-01-16T10:10:42.765Z,0.77
2018-01-16T10:13:10.810Z,0.93
2018-01-16T10:15:38.857Z,0.75
2018-01-16T10:18:06.906Z,1.00
2018-01-16T10:20:34.957Z,0.70
2018-01-16T10:23:04.884Z,0.80
2018-01-16T10:25:34.817Z,0.90
2018-01-16T10:28:02.862Z,0.60
2018-01-16T10:30:31.682Z,0.60
2018-01-16T10:32:59.725Z,0.80
2018-01-16T10:35:27.786Z,0.70
2018-01-16T10:37:55.829Z,0.80
2018-01-16T10:40:23.888Z,0.70
2018-01-16T10:42:51.925Z,0.80
2018-01-16T10:45:19.977Z,0.60
2018-01-16T10:47:48.027Z,0.60
2018-01-16T10:50:16.086Z,0.70
2018-01-16T10:52:44.133Z,1.00
2018-01-16T10:55:12.960Z,0.70
2018-01-16T10:57:40.997Z,0.65
2018-01-16T11:00:09.066Z,0.60
2018-01-16T11:02:37.106Z,0.80
2018-01-16T11:05:08.967Z,0.60
2018-01-16T11:07:37.033Z,0.70
2018-01-16T11:10:05.312Z,0.90
2018-01-16T11:12:33.369Z,0.70
2018-01-16T11:15:01.433Z,0.70
2018-01-16T11:17:30.236Z,0.80
2018-01-16T11:19:59.063Z,0.67
2018-01-16T11:22:27.106Z,0.60
2018-01-16T11:24:55.935Z,0.60
2018-01-16T11:27:23.978Z,0.50
2018-01-16T11:29:52.030Z,0.70
2018-01-16T11:32:20.079Z,0.63
2018-01-16T11:34:48.136Z,0.70
2018-01-16T11:37:16.198Z,0.70
2018-01-16T11:39:44.248Z,0.70
2018-01-16T11:42:13.063Z,0.70
2018-01-16T11:44:41.119Z,0.70
2018-01-16T11:47:09.936Z,0.70
2018-01-16T11:49:37.986Z,0.70
2018-01-16T11:52:06.802Z,0.70
2018-01-16T11:54:35.970Z,0.77
2018-01-16T11:57:04.777Z,0.75
2018-01-16T11:59:33.597Z,0.80
2018-01-16T12:02:01.650Z,0.70
2018-01-16T12:04:29.705Z,0.70
2018-01-16T12:06:57.746Z,0.67
2018-01-16T12:09:25.814Z,0.83
2018-01-16T12:11:53.857Z,0.60
2018-01-16T12:14:21.911Z,0.80
2018-01-16T12:16:50.713Z,0.90
2018-01-16T12:19:19.544Z,2.03
2018-01-16T12:21:47.593Z,1.13
2018-01-16T12:24:16.410Z,0.97
2018-01-16T12:26:44.462Z,0.90
2018-01-16T12:29:13.784Z,0.90
2018-01-16T12:31:41.878Z,1.10
2018-01-16T12:34:09.929Z,1.30
2018-01-16T12:36:37.970Z,1.00
2018-01-16T12:39:07.530Z,1.25
2018-01-16T12:41:36.688Z,1.47
2018-01-16T12:44:06.650Z,1.00
2018-01-16T12:46:34.716Z,1.00
2018-01-16T12:49:02.769Z,1.00
2018-01-16T12:51:31.585Z,0.90
2018-01-16T12:53:59.637Z,0.70
2018-01-16T12:56:28.449Z,1.03
2018-01-16T12:58:56.501Z,0.90
2018-01-16T13:01:25.318Z,1.63
2018-01-16T13:03:53.358Z,0.80
2018-01-16T13:06:21.417Z,0.80
2018-01-16T13:08:49.457Z,0.90
2018-01-16T13:11:17.935Z,0.90
2018-01-16T13:13:45.995Z,0.70
2018-01-16T13:16:14.050Z,1.20
2018-01-16T13:18:42.872Z,0.80
2018-01-16T13:21:11.703Z,0.80
2018-01-16T13:23:39.746Z,0.80
2018-01-16T13:26:07.806Z,1.00
2018-01-16T13:28:35.858Z,0.80
2018-01-16T13:31:03.922Z,0.70
2018-01-16T13:33:31.969Z,0.60
2018-01-16T13:36:00.037Z,0.73
2018-01-16T13:38:28.082Z,0.80
2018-01-16T13:40:56.906Z,0.70
2018-01-16T13:43:24.945Z,0.80
2018-01-16T13:45:53.774Z,0.80
2018-01-16T13:48:21.838Z,1.00
2018-01-16T13:50:49.893Z,0.70
2018-01-16T13:53:18.713Z,0.60
2018-01-16T13:55:46.785Z,0.60
2018-01-16T13:58:14.821Z,0.70
2018-01-16T14:00:42.870Z,0.62
2018-01-16T14:03:10.922Z,0.70
2018-01-16T14:05:38.985Z,0.60
2018-01-16T14:08:08.154Z,0.60
2018-01-16T14:10:38.105Z,0.80
2018-01-16T14:13:06.159Z,0.60
2018-01-16T14:15:35.014Z,0.55
2018-01-16T14:18:03.052Z,0.80
2018-01-16T14:20:31.106Z,0.70
2018-01-16T14:22:59.921Z,0.60
2018-01-16T14:25:27.995Z,0.70
2018-01-16T14:27:56.035Z,0.60
2018-01-16T14:30:24.099Z,0.60
2018-01-16T14:32:52.161Z,0.70
2018-01-16T14:35:20.204Z,0.60
2018-01-16T14:37:48.268Z,0.60
2018-01-16T14:40:17.073Z,0.77
2018-01-16T14:42:45.169Z,0.70
2018-01-16T14:45:13.216Z,0.70
2018-01-16T14:47:41.262Z,0.70
2018-01-16T14:50:09.317Z,0.83
2018-01-16T14:52:37.389Z,0.70
2018-01-16T14:55:05.435Z,0.60
2018-01-16T14:57:33.505Z,0.70
2018-01-16T15:00:01.559Z,1.87
2018-01-16T15:02:30.377Z,0.83
2018-01-16T15:04:58.438Z,1.10
2018-01-16T15:07:26.493Z,0.70
2018-01-16T15:09:55.383Z,1.00
2018-01-16T15:12:23.434Z,1.13
2018-01-16T15:14:51.490Z,1.07
2018-01-16T15:17:19.529Z,1.17
2018-01-16T15:19:47.573Z,0.73
2018-01-16T15:22:15.638Z,0.87
2018-01-16T15:24:43.688Z,1.12
2018-01-16T15:27:11.746Z,0.80
2018-01-16T15:29:42.576Z,0.80
2018-01-16T15:32:11.387Z,0.63
2018-01-16T15:34:39.491Z,0.80
2018-01-16T15:37:07.545Z,0.90
2018-01-16T15:39:35.594Z,0.90
2018-01-16T15:42:03.645Z,0.80
2018-01-16T15:44:31.689Z,1.23
2018-01-16T15:46:59.754Z,0.80
2018-01-16T15:49:27.801Z,0.90
2018-01-16T15:51:55.860Z,0.90
2018-01-16T15:54:24.671Z,0.70
2018-01-16T15:56:52.746Z,0.77
2018-01-16T15:59:20.802Z,0.70
2018-01-16T16:01:49.621Z,0.70
2018-01-16T16:04:17.684Z,0.73
2018-01-16T16:06:46.494Z,0.90
2018-01-16T16:09:14.570Z,0.95
2018-01-16T16:11:42.616Z,0.90
2018-01-16T16:14:11.421Z,1.20
2018-01-16T16:16:40.213Z,1.08
2018-01-16T16:19:10.152Z,1.30
2018-01-16T16:21:38.206Z,0.85
2018-01-16T16:24:07.042Z,0.85
2018-01-16T16:26:35.093Z,0.87
2018-01-16T16:29:03.146Z,0.80
2018-01-16T16:31:31.971Z,0.90
2018-01-16T16:34:00.031Z,0.90
2018-01-16T16:36:28.836Z,0.90
2018-01-16T16:38:56.890Z,0.97
2018-01-16T16:41:25.697Z,0.77
2018-01-16T16:43:53.761Z,1.10
2018-01-16T16:46:22.578Z,0.90
2018-01-16T16:48:50.625Z,0.95
2018-01-16T16:51:19.438Z,0.90
2018-01-16T16:53:47.492Z,1.23
2018-01-16T16:56:16.305Z,1.02
2018-01-16T16:58:44.359Z,0.90
2018-01-16T17:01:13.175Z,1.00
2018-01-16T17:03:41.225Z,1.10
2018-01-16T17:06:11.149Z,1.00
2018-01-16T17:08:41.084Z,1.13
2018-01-16T17:11:09.126Z,1.00
2018-01-16T17:13:37.173Z,1.40
2018-01-16T17:16:05.230Z,1.10
2018-01-16T17:18:33.289Z,0.90
2018-01-16T17:21:01.333Z,0.80
2018-01-16T17:23:30.154Z,0.80
2018-01-16T17:25:58.209Z,1.00
2018-01-16T17:28:27.031Z,1.00
2018-01-16T17:30:55.078Z,1.00
2018-01-16T17:33:23.906Z,0.90
2018-01-16T17:35:51.950Z,0.70
2018-01-16T17:38:20.774Z,1.30
2018-01-16T17:40:48.814Z,0.80
2018-01-16T17:43:17.637Z,1.53
2018-01-16T17:45:45.678Z,1.02
2018-01-16T17:48:14.501Z,1.10
2018-01-16T17:50:42.546Z,0.97
2018-01-16T17:53:12.481Z,0.87
2018-01-16T17:55:42.408Z,0.80
2018-01-16T17:58:10.465Z,1.00
2018-01-16T18:00:39.286Z,1.00
2018-01-16T18:03:07.332Z,1.20
2018-01-16T18:05:36.158Z,1.10
2018-01-16T18:08:04.201Z,1.00
2018-01-16T18:10:33.027Z,1.00
2018-01-16T18:13:01.068Z,1.13
2018-01-16T18:15:29.892Z,0.90
2018-01-16T18:17:57.956Z,0.90
2018-01-16T18:20:26.010Z,2.00
2018-01-16T18:22:54.053Z,1.03
2018-01-16T18:25:22.122Z,1.30
2018-01-16T18:27:50.183Z,1.43
2018-01-16T18:30:18.233Z,1.00
2018-01-16T18:32:46.284Z,0.90
2018-01-16T18:35:14.376Z,1.20
2018-01-16T18:37:42.501Z,0.90
2018-01-16T18:40:10.556Z,0.90
2018-01-16T18:42:38.593Z,1.27
2018-01-16T18:45:07.426Z,1.50
2018-01-16T18:47:35.469Z,0.90
2018-01-16T18:50:04.290Z,1.33
2018-01-16T18:52:32.344Z,1.50
2018-01-16T18:55:01.183Z,0.90
2018-01-16T18:57:29.217Z,1.20
2018-01-16T18:59:58.045Z,1.13
2018-01-16T19:02:26.082Z,1.10
2018-01-16T19:04:54.902Z,1.17
2018-01-16T19:07:22.941Z,0.80
2018-01-16T19:09:51.776Z,1.37
2018-01-16T19:12:19.817Z,1.00
2018-01-16T19:14:48.731Z,1.27
2018-01-16T19:17:17.530Z,1.20
2018-01-16T19:19:45.580Z,0.90
2018-01-16T19:22:14.421Z,0.80
2018-01-16T19:24:43.652Z,1.05
2018-01-16T19:27:11.710Z,0.93
2018-01-16T19:29:39.779Z,0.93
2018-01-16T19:32:07.839Z,0.90
2018-01-16T19:34:35.874Z,1.60
2018-01-16T19:37:04.690Z,1.57
2018-01-16T19:39:32.779Z,1.37
2018-01-16T19:42:00.864Z,2.10
2018-01-16T19:44:28.897Z,2.27
2018-01-16T19:46:57.726Z,1.73
2018-01-16T19:49:25.779Z,1.60
2018-01-16T19:51:54.597Z,1.80
2018-01-16T19:54:22.637Z,1.50
2018-01-16T19:56:51.499Z,1.70
2018-01-16T19:59:19.534Z,1.50
2018-01-16T20:01:47.590Z,2.00
2018-01-16T20:04:16.401Z,2.57
2018-01-16T20:06:44.453Z,1.50
2018-01-16T20:09:14.384Z,1.70
2018-01-16T20:11:42.445Z,1.43
2018-01-16T20:14:11.252Z,1.90
2018-01-16T20:16:39.322Z,2.43
2018-01-16T20:19:08.145Z,1.77
2018-01-16T20:21:36.239Z,1.58
2018-01-16T20:24:04.322Z,1.80
2018-01-16T20:26:32.439Z,2.40
2018-01-16T20:29:00.494Z,1.87
2018-01-16T20:31:28.540Z,1.80
2018-01-16T20:33:56.611Z,1.20
2018-01-16T20:36:24.710Z,1.70
2018-01-16T20:38:52.791Z,1.43
2018-01-16T20:41:20.825Z,1.73
2018-01-16T20:43:48.929Z,1.95
2018-01-16T20:46:16.967Z,2.10
2018-01-16T20:48:45.021Z,1.70
2018-01-16T20:51:15.017Z,2.17
2018-01-16T20:53:43.061Z,2.20
2018-01-16T20:56:11.125Z,2.30
2018-01-16T20:58:40.138Z,2.30
2018-01-16T21:01:08.234Z,1.40
2018-01-16T21:03:36.277Z,1.70
2018-01-16T21:06:04.331Z,1.60
2018-01-16T21:08:33.195Z,1.70
2018-01-16T21:11:01.242Z,2.20
2018-01-16T21:13:29.310Z,2.33
2018-01-16T21:15:57.410Z,2.00
2018-01-16T21:18:25.496Z,2.60
2018-01-16T21:20:53.529Z,3.27
2018-01-16T21:23:21.580Z,2.20
2018-01-16T21:25:50.443Z,1.58
2018-01-16T21:28:18.547Z,2.27
2018-01-16T21:30:47.384Z,2.03
2018-01-16T21:33:15.484Z,2.87
2018-01-16T21:35:43.582Z,2.70
2018-01-16T21:38:12.466Z,2.53
2018-01-16T21:40:40.505Z,3.17
2018-01-16T21:43:08.590Z,3.20
2018-01-16T21:45:36.675Z,2.50
2018-01-16T21:48:04.928Z,2.55
2018-01-16T21:50:32.992Z,2.80
2018-01-16T21:53:01.047Z,3.10
2018-01-16T21:55:29.857Z,2.87
2018-01-16T21:57:57.972Z,2.17
2018-01-16T22:00:26.061Z,2.90
2018-01-16T22:02:54.153Z,2.93
2018-01-16T22:05:22.185Z,2.20
2018-01-16T22:07:50.242Z,3.00
2018-01-16T22:10:18.285Z,2.80
2018-01-16T22:12:47.123Z,2.13
2018-01-16T22:15:16.308Z,2.97
2018-01-16T22:17:44.429Z,2.43
2018-01-16T22:20:12.465Z,2.10
2018-01-16T22:22:40.516Z,2.07
2018-01-16T22:25:08.570Z,2.60
2018-01-16T22:27:36.614Z,2.40
2018-01-16T22:30:04.723Z,2.33
2018-01-16T22:32:32.805Z,2.30
2018-01-16T22:35:00.858Z,2.30
2018-01-16T22:37:28.923Z,2.83
2018-01-16T22:39:56.984Z,2.70
2018-01-16T22:42:25.038Z,2.63
2018-01-16T22:44:53.093Z,2.43
2018-01-16T22:47:22.295Z,2.75
2018-01-16T22:49:50.364Z,2.23
2018-01-16T22:52:18.406Z,2.37
2018-01-16T22:54:46.905Z,2.22
2018-01-16T22:57:14.950Z,2.70
2018-01-16T22:59:43.025Z,2.10
2018-01-16T23:02:11.079Z,2.20
2018-01-16T23:04:39.902Z,2.30
2018-01-16T23:07:07.945Z,2.67
2018-01-16T23:09:36.762Z,1.90
2018-01-16T23:12:04.821Z,1.87
2018-01-16T23:14:32.889Z,1.57
2018-01-16T23:17:01.703Z,2.30
2018-01-16T23:19:29.776Z,2.40
2018-01-16T23:21:57.838Z,1.70
2018-01-16T23:24:26.664Z,1.53
2018-01-16T23:26:54.701Z,1.83
2018-01-16T23:29:23.561Z,1.70
2018-01-16T23:31:51.613Z,1.85
2018-01-16T23:34:19.661Z,2.25
2018-01-16T23:36:47.721Z,2.00
2018-01-16T23:39:17.670Z,2.30
2018-01-16T23:41:45.738Z,2.12
2018-01-16T23:44:13.777Z,2.22
2018-01-16T23:46:42.594Z,1.77
2018-01-16T23:49:10.652Z,2.67
2018-01-16T23:51:38.694Z,2.30
2018-01-16T23:54:06.771Z,2.37
2018-01-16T23:56:34.813Z,2.60
2018-01-16T23:59:02.858Z,2.10
